sensor_id;sensor_type;location;lat;lon;timestamp;P1;durP1;ratioP1;P2;durP2;ratioP2
78610;SDS011;67932;50.474;4.436;2023-03-13T00:00:17;11.00;;;2.92;;
78610;SDS011;67932;50.474;4.436;2023-03-13T00:02:44;7.53;;;3.17;;
78610;SDS011;67932;50.474;4.436;2023-03-13T00:05:13;10.90;;;3.35;;
78610;SDS011;67932;50.474;4.436;2023-03-13T00:07:39;9.05;;;2.95;;
78610;SDS011;67932;50.474;4.436;2023-03-13T00:10:14;10.82;;;3.22;;
78610;SDS011;67932;50.474;4.436;2023-03-13T00:12:51;9.60;;;3.05;;
78610;SDS011;67932;50.474;4.436;2023-03-13T00:15:41;13.52;;;4.13;;
78610;SDS011;67932;50.474;4.436;2023-03-13T00:18:07;6.93;;;2.60;;
78610;SDS011;67932;50.474;4.436;2023-03-13T00:20:33;12.23;;;3.35;;
78610;SDS011;67932;50.474;4.436;2023-03-13T00:22:59;8.43;;;2.42;;
78610;SDS011;67932;50.474;4.436;2023-03-13T00:25:25;8.68;;;2.35;;
78610;SDS011;67932;50.474;4.436;2023-03-13T00:27:52;8.07;;;2.70;;
78610;SDS011;67932;50.474;4.436;2023-03-13T00:30:18;8.63;;;2.40;;
78610;SDS011;67932;50.474;4.436;2023-03-13T00:32:44;7.75;;;2.63;;
78610;SDS011;67932;50.474;4.436;2023-03-13T00:35:14;7.57;;;2.47;;
78610;SDS011;67932;50.474;4.436;2023-03-13T00:37:40;6.70;;;2.35;;
78610;SDS011;67932;50.474;4.436;2023-03-13T00:40:07;7.38;;;2.40;;
78610;SDS011;67932;50.474;4.436;2023-03-13T00:42:33;6.85;;;2.10;;
78610;SDS011;67932;50.474;4.436;2023-03-13T00:45:00;9.18;;;2.42;;
78610;SDS011;67932;50.474;4.436;2023-03-13T00:47:26;7.45;;;2.50;;
78610;SDS011;67932;50.474;4.436;2023-03-13T00:49:52;9.18;;;2.90;;
78610;SDS011;67932;50.474;4.436;2023-03-13T00:52:18;7.95;;;2.80;;
78610;SDS011;67932;50.474;4.436;2023-03-13T00:54:44;8.95;;;2.92;;
78610;SDS011;67932;50.474;4.436;2023-03-13T00:57:10;11.52;;;2.97;;
78610;SDS011;67932;50.474;4.436;2023-03-13T00:59:38;6.43;;;3.25;;
78610;SDS011;67932;50.474;4.436;2023-03-13T01:02:04;7.43;;;3.40;;
78610;SDS011;67932;50.474;4.436;2023-03-13T01:04:30;6.75;;;3.47;;
78610;SDS011;67932;50.474;4.436;2023-03-13T01:06:56;13.38;;;4.50;;
78610;SDS011;67932;50.474;4.436;2023-03-13T01:09:22;8.57;;;3.60;;
78610;SDS011;67932;50.474;4.436;2023-03-13T01:11:48;7.82;;;3.70;;
78610;SDS011;67932;50.474;4.436;2023-03-13T01:14:15;9.27;;;4.43;;
78610;SDS011;67932;50.474;4.436;2023-03-13T01:16:42;10.50;;;4.20;;
78610;SDS011;67932;50.474;4.436;2023-03-13T01:19:09;9.85;;;4.20;;
78610;SDS011;67932;50.474;4.436;2023-03-13T01:21:36;14.70;;;5.35;;
78610;SDS011;67932;50.474;4.436;2023-03-13T01:24:02;11.93;;;4.75;;
78610;SDS011;67932;50.474;4.436;2023-03-13T01:26:28;15.13;;;4.75;;
78610;SDS011;67932;50.474;4.436;2023-03-13T01:28:56;10.45;;;4.75;;
78610;SDS011;67932;50.474;4.436;2023-03-13T01:31:23;10.65;;;5.70;;
78610;SDS011;67932;50.474;4.436;2023-03-13T01:33:50;18.33;;;6.35;;
78610;SDS011;67932;50.474;4.436;2023-03-13T01:36:18;13.52;;;5.82;;
78610;SDS011;67932;50.474;4.436;2023-03-13T01:38:51;11.98;;;5.90;;
78610;SDS011;67932;50.474;4.436;2023-03-13T01:41:18;17.50;;;7.53;;
78610;SDS011;67932;50.474;4.436;2023-03-13T01:43:45;15.02;;;6.90;;
78610;SDS011;67932;50.474;4.436;2023-03-13T01:46:12;12.18;;;6.85;;
78610;SDS011;67932;50.474;4.436;2023-03-13T01:51:15;14.55;;;6.55;;
78610;SDS011;67932;50.474;4.436;2023-03-13T01:53:43;12.27;;;6.10;;
78610;SDS011;67932;50.474;4.436;2023-03-13T01:56:12;10.95;;;5.65;;
78610;SDS011;67932;50.474;4.436;2023-03-13T01:58:40;11.45;;;5.63;;
78610;SDS011;67932;50.474;4.436;2023-03-13T02:01:06;12.68;;;5.85;;
78610;SDS011;67932;50.474;4.436;2023-03-13T02:03:32;13.18;;;6.93;;
78610;SDS011;67932;50.474;4.436;2023-03-13T02:06:00;12.50;;;5.68;;
78610;SDS011;67932;50.474;4.436;2023-03-13T02:08:31;11.55;;;6.53;;
78610;SDS011;67932;50.474;4.436;2023-03-13T02:11:11;11.60;;;6.03;;
78610;SDS011;67932;50.474;4.436;2023-03-13T02:13:38;13.85;;;5.85;;
78610;SDS011;67932;50.474;4.436;2023-03-13T02:16:05;14.52;;;7.13;;
78610;SDS011;67932;50.474;4.436;2023-03-13T02:18:31;12.93;;;5.47;;
78610;SDS011;67932;50.474;4.436;2023-03-13T02:21:01;11.18;;;6.00;;
78610;SDS011;67932;50.474;4.436;2023-03-13T02:23:32;13.45;;;5.90;;
78610;SDS011;67932;50.474;4.436;2023-03-13T02:25:59;10.77;;;4.90;;
78610;SDS011;67932;50.474;4.436;2023-03-13T02:28:32;11.50;;;5.50;;
78610;SDS011;67932;50.474;4.436;2023-03-13T02:30:59;14.02;;;6.40;;
78610;SDS011;67932;50.474;4.436;2023-03-13T02:33:26;10.48;;;5.68;;
78610;SDS011;67932;50.474;4.436;2023-03-13T02:35:53;16.92;;;6.22;;
78610;SDS011;67932;50.474;4.436;2023-03-13T02:38:21;12.82;;;6.10;;
78610;SDS011;67932;50.474;4.436;2023-03-13T02:40:48;11.30;;;6.05;;
78610;SDS011;67932;50.474;4.436;2023-03-13T02:43:36;9.88;;;5.32;;
78610;SDS011;67932;50.474;4.436;2023-03-13T02:46:02;10.48;;;5.90;;
78610;SDS011;67932;50.474;4.436;2023-03-13T02:48:39;11.68;;;5.72;;
78610;SDS011;67932;50.474;4.436;2023-03-13T02:51:11;9.15;;;5.20;;
78610;SDS011;67932;50.474;4.436;2023-03-13T02:53:39;9.77;;;5.00;;
78610;SDS011;67932;50.474;4.436;2023-03-13T02:56:05;10.38;;;5.43;;
78610;SDS011;67932;50.474;4.436;2023-03-13T02:58:39;10.77;;;5.30;;
78610;SDS011;67932;50.474;4.436;2023-03-13T03:01:05;8.68;;;4.90;;
78610;SDS011;67932;50.474;4.436;2023-03-13T03:03:35;10.23;;;5.25;;
78610;SDS011;67932;50.474;4.436;2023-03-13T03:06:02;9.30;;;5.20;;
78610;SDS011;67932;50.474;4.436;2023-03-13T03:08:28;9.27;;;4.80;;
78610;SDS011;67932;50.474;4.436;2023-03-13T03:10:55;10.32;;;4.70;;
78610;SDS011;67932;50.474;4.436;2023-03-13T03:13:21;8.52;;;5.00;;
78610;SDS011;67932;50.474;4.436;2023-03-13T03:15:47;9.32;;;4.70;;
78610;SDS011;67932;50.474;4.436;2023-03-13T03:18:13;8.00;;;3.90;;
78610;SDS011;67932;50.474;4.436;2023-03-13T03:20:39;6.00;;;3.75;;
78610;SDS011;67932;50.474;4.436;2023-03-13T03:23:05;6.95;;;4.13;;
78610;SDS011;67932;50.474;4.436;2023-03-13T03:25:32;6.82;;;3.97;;
78610;SDS011;67932;50.474;4.436;2023-03-13T03:27:58;6.63;;;3.72;;
78610;SDS011;67932;50.474;4.436;2023-03-13T03:30:24;5.22;;;3.88;;
78610;SDS011;67932;50.474;4.436;2023-03-13T03:32:50;9.43;;;3.42;;
78610;SDS011;67932;50.474;4.436;2023-03-13T03:35:16;8.02;;;3.85;;
78610;SDS011;67932;50.474;4.436;2023-03-13T03:37:42;5.85;;;4.15;;
78610;SDS011;67932;50.474;4.436;2023-03-13T03:40:08;5.03;;;2.80;;
78610;SDS011;67932;50.474;4.436;2023-03-13T03:42:35;6.93;;;3.47;;
78610;SDS011;67932;50.474;4.436;2023-03-13T03:45:08;5.35;;;3.45;;
78610;SDS011;67932;50.474;4.436;2023-03-13T03:47:36;6.97;;;3.05;;
78610;SDS011;67932;50.474;4.436;2023-03-13T03:50:02;5.93;;;2.83;;
78610;SDS011;67932;50.474;4.436;2023-03-13T03:52:28;6.47;;;3.17;;
78610;SDS011;67932;50.474;4.436;2023-03-13T03:54:54;5.65;;;2.60;;
78610;SDS011;67932;50.474;4.436;2023-03-13T03:57:20;5.45;;;2.97;;
78610;SDS011;67932;50.474;4.436;2023-03-13T03:59:47;4.60;;;2.70;;
78610;SDS011;67932;50.474;4.436;2023-03-13T04:02:13;5.97;;;2.42;;
78610;SDS011;67932;50.474;4.436;2023-03-13T04:04:39;4.75;;;3.05;;
78610;SDS011;67932;50.474;4.436;2023-03-13T04:07:05;3.83;;;2.67;;
78610;SDS011;67932;50.474;4.436;2023-03-13T04:09:31;4.60;;;2.50;;
78610;SDS011;67932;50.474;4.436;2023-03-13T04:11:57;6.57;;;2.58;;
78610;SDS011;67932;50.474;4.436;2023-03-13T04:14:23;8.40;;;2.83;;
78610;SDS011;67932;50.474;4.436;2023-03-13T04:16:50;6.53;;;2.45;;
78610;SDS011;67932;50.474;4.436;2023-03-13T04:19:16;4.20;;;2.92;;
78610;SDS011;67932;50.474;4.436;2023-03-13T04:21:42;4.15;;;2.60;;
78610;SDS011;67932;50.474;4.436;2023-03-13T04:24:08;7.80;;;2.90;;
78610;SDS011;67932;50.474;4.436;2023-03-13T04:26:34;5.63;;;2.90;;
78610;SDS011;67932;50.474;4.436;2023-03-13T04:29:00;5.95;;;2.40;;
78610;SDS011;67932;50.474;4.436;2023-03-13T04:31:26;6.07;;;2.65;;
78610;SDS011;67932;50.474;4.436;2023-03-13T04:33:52;4.45;;;2.28;;
78610;SDS011;67932;50.474;4.436;2023-03-13T04:36:18;4.18;;;2.03;;
78610;SDS011;67932;50.474;4.436;2023-03-13T04:38:45;5.75;;;2.20;;
78610;SDS011;67932;50.474;4.436;2023-03-13T04:41:11;5.72;;;2.45;;
78610;SDS011;67932;50.474;4.436;2023-03-13T04:43:37;5.45;;;2.72;;
78610;SDS011;67932;50.474;4.436;2023-03-13T04:46:03;3.13;;;2.20;;
78610;SDS011;67932;50.474;4.436;2023-03-13T04:48:29;5.25;;;2.03;;
78610;SDS011;67932;50.474;4.436;2023-03-13T04:50:55;4.30;;;2.63;;
78610;SDS011;67932;50.474;4.436;2023-03-13T04:53:21;5.28;;;2.50;;
78610;SDS011;67932;50.474;4.436;2023-03-13T04:55:47;6.05;;;2.28;;
78610;SDS011;67932;50.474;4.436;2023-03-13T04:58:14;5.45;;;2.17;;
78610;SDS011;67932;50.474;4.436;2023-03-13T05:00:40;6.43;;;2.30;;
78610;SDS011;67932;50.474;4.436;2023-03-13T05:03:06;4.88;;;2.72;;
78610;SDS011;67932;50.474;4.436;2023-03-13T05:05:33;4.80;;;2.10;;
78610;SDS011;67932;50.474;4.436;2023-03-13T05:07:59;5.05;;;2.25;;
78610;SDS011;67932;50.474;4.436;2023-03-13T05:10:25;9.07;;;2.78;;
78610;SDS011;67932;50.474;4.436;2023-03-13T05:12:51;2.75;;;1.70;;
78610;SDS011;67932;50.474;4.436;2023-03-13T05:15:17;6.35;;;2.63;;
78610;SDS011;67932;50.474;4.436;2023-03-13T05:17:43;6.18;;;2.53;;
78610;SDS011;67932;50.474;4.436;2023-03-13T05:20:10;7.63;;;2.65;;
78610;SDS011;67932;50.474;4.436;2023-03-13T05:22:36;5.70;;;2.75;;
78610;SDS011;67932;50.474;4.436;2023-03-13T05:25:03;8.10;;;2.40;;
78610;SDS011;67932;50.474;4.436;2023-03-13T05:27:29;6.55;;;2.45;;
78610;SDS011;67932;50.474;4.436;2023-03-13T05:29:55;4.85;;;2.10;;
78610;SDS011;67932;50.474;4.436;2023-03-13T05:32:22;4.15;;;2.28;;
78610;SDS011;67932;50.474;4.436;2023-03-13T05:34:49;3.95;;;2.22;;
78610;SDS011;67932;50.474;4.436;2023-03-13T05:37:15;6.57;;;2.45;;
78610;SDS011;67932;50.474;4.436;2023-03-13T05:39:41;4.55;;;1.80;;
78610;SDS011;67932;50.474;4.436;2023-03-13T05:42:07;6.65;;;2.20;;
78610;SDS011;67932;50.474;4.436;2023-03-13T05:44:33;6.82;;;2.45;;
78610;SDS011;67932;50.474;4.436;2023-03-13T05:46:59;4.88;;;2.38;;
78610;SDS011;67932;50.474;4.436;2023-03-13T05:49:25;5.13;;;2.33;;
78610;SDS011;67932;50.474;4.436;2023-03-13T05:51:51;6.57;;;2.38;;
78610;SDS011;67932;50.474;4.436;2023-03-13T05:54:17;6.05;;;2.38;;
78610;SDS011;67932;50.474;4.436;2023-03-13T05:56:43;3.83;;;2.28;;
78610;SDS011;67932;50.474;4.436;2023-03-13T05:59:12;4.43;;;2.15;;
78610;SDS011;67932;50.474;4.436;2023-03-13T06:01:38;7.15;;;2.25;;
78610;SDS011;67932;50.474;4.436;2023-03-13T06:04:04;5.70;;;1.85;;
78610;SDS011;67932;50.474;4.436;2023-03-13T06:06:30;6.38;;;2.20;;
78610;SDS011;67932;50.474;4.436;2023-03-13T06:08:56;5.88;;;2.55;;
78610;SDS011;67932;50.474;4.436;2023-03-13T06:11:22;4.28;;;2.08;;
78610;SDS011;67932;50.474;4.436;2023-03-13T06:13:52;3.08;;;1.70;;
78610;SDS011;67932;50.474;4.436;2023-03-13T06:16:18;5.85;;;2.45;;
78610;SDS011;67932;50.474;4.436;2023-03-13T06:18:44;4.63;;;2.00;;
78610;SDS011;67932;50.474;4.436;2023-03-13T06:21:10;6.35;;;1.95;;
78610;SDS011;67932;50.474;4.436;2023-03-13T06:23:36;7.75;;;2.35;;
78610;SDS011;67932;50.474;4.436;2023-03-13T06:26:02;9.13;;;2.10;;
78610;SDS011;67932;50.474;4.436;2023-03-13T06:28:29;4.13;;;2.25;;
78610;SDS011;67932;50.474;4.436;2023-03-13T06:30:59;6.57;;;2.15;;
78610;SDS011;67932;50.474;4.436;2023-03-13T06:33:26;8.75;;;2.47;;
78610;SDS011;67932;50.474;4.436;2023-03-13T06:35:52;5.22;;;2.25;;
78610;SDS011;67932;50.474;4.436;2023-03-13T06:38:18;3.22;;;1.70;;
78610;SDS011;67932;50.474;4.436;2023-03-13T06:40:45;5.45;;;1.85;;
78610;SDS011;67932;50.474;4.436;2023-03-13T06:43:11;6.13;;;1.92;;
78610;SDS011;67932;50.474;4.436;2023-03-13T06:45:38;5.30;;;2.00;;
78610;SDS011;67932;50.474;4.436;2023-03-13T06:48:07;3.58;;;1.95;;
78610;SDS011;67932;50.474;4.436;2023-03-13T06:50:36;4.72;;;2.35;;
78610;SDS011;67932;50.474;4.436;2023-03-13T06:53:02;5.55;;;2.03;;
78610;SDS011;67932;50.474;4.436;2023-03-13T06:55:29;3.97;;;2.65;;
78610;SDS011;67932;50.474;4.436;2023-03-13T06:57:59;5.68;;;2.00;;
78610;SDS011;67932;50.474;4.436;2023-03-13T07:00:25;10.65;;;2.63;;
78610;SDS011;67932;50.474;4.436;2023-03-13T07:08:44;5.60;;;2.25;;
78610;SDS011;67932;50.474;4.436;2023-03-13T07:11:30;4.85;;;1.70;;
78610;SDS011;67932;50.474;4.436;2023-03-13T07:13:56;5.43;;;1.80;;
78610;SDS011;67932;50.474;4.436;2023-03-13T07:16:26;8.30;;;2.80;;
78610;SDS011;67932;50.474;4.436;2023-03-13T07:18:52;5.80;;;2.67;;
78610;SDS011;67932;50.474;4.436;2023-03-13T07:21:18;6.82;;;2.47;;
78610;SDS011;67932;50.474;4.436;2023-03-13T07:23:44;6.55;;;2.63;;
78610;SDS011;67932;50.474;4.436;2023-03-13T07:26:11;4.18;;;2.35;;
78610;SDS011;67932;50.474;4.436;2023-03-13T07:28:37;4.03;;;2.25;;
78610;SDS011;67932;50.474;4.436;2023-03-13T07:33:34;5.75;;;2.72;;
78610;SDS011;67932;50.474;4.436;2023-03-13T07:36:00;5.10;;;2.33;;
78610;SDS011;67932;50.474;4.436;2023-03-13T07:38:26;11.95;;;2.55;;
78610;SDS011;67932;50.474;4.436;2023-03-13T07:40:53;4.35;;;1.98;;
78610;SDS011;67932;50.474;4.436;2023-03-13T07:43:19;4.57;;;2.42;;
78610;SDS011;67932;50.474;4.436;2023-03-13T07:46:05;7.25;;;2.17;;
78610;SDS011;67932;50.474;4.436;2023-03-13T07:48:33;4.13;;;1.92;;
78610;SDS011;67932;50.474;4.436;2023-03-13T07:51:00;4.55;;;2.10;;
78610;SDS011;67932;50.474;4.436;2023-03-13T07:53:27;5.20;;;2.78;;
78610;SDS011;67932;50.474;4.436;2023-03-13T07:56:00;3.58;;;2.30;;
78610;SDS011;67932;50.474;4.436;2023-03-13T07:58:30;5.60;;;2.83;;
78610;SDS011;67932;50.474;4.436;2023-03-13T08:00:58;7.10;;;2.03;;
78610;SDS011;67932;50.474;4.436;2023-03-13T08:03:24;5.72;;;2.40;;
78610;SDS011;67932;50.474;4.436;2023-03-13T08:06:01;4.35;;;2.05;;
78610;SDS011;67932;50.474;4.436;2023-03-13T08:08:30;4.95;;;2.42;;
78610;SDS011;67932;50.474;4.436;2023-03-13T08:13:41;4.40;;;2.47;;
78610;SDS011;67932;50.474;4.436;2023-03-13T08:16:08;3.35;;;1.95;;
78610;SDS011;67932;50.474;4.436;2023-03-13T08:18:36;5.88;;;2.50;;
78610;SDS011;67932;50.474;4.436;2023-03-13T08:21:03;2.45;;;1.65;;
78610;SDS011;67932;50.474;4.436;2023-03-13T08:23:29;5.90;;;2.28;;
78610;SDS011;67932;50.474;4.436;2023-03-13T08:26:00;4.80;;;2.42;;
78610;SDS011;67932;50.474;4.436;2023-03-13T08:28:26;9.23;;;2.60;;
78610;SDS011;67932;50.474;4.436;2023-03-13T08:30:52;7.15;;;2.53;;
78610;SDS011;67932;50.474;4.436;2023-03-13T08:33:18;3.92;;;2.70;;
78610;SDS011;67932;50.474;4.436;2023-03-13T08:35:44;9.98;;;3.03;;
78610;SDS011;67932;50.474;4.436;2023-03-13T08:38:10;5.38;;;3.13;;
78610;SDS011;67932;50.474;4.436;2023-03-13T08:40:36;8.45;;;3.40;;
78610;SDS011;67932;50.474;4.436;2023-03-13T08:43:02;6.72;;;2.83;;
78610;SDS011;67932;50.474;4.436;2023-03-13T08:45:28;5.88;;;3.00;;
78610;SDS011;67932;50.474;4.436;2023-03-13T08:47:54;4.95;;;2.80;;
78610;SDS011;67932;50.474;4.436;2023-03-13T08:50:20;5.60;;;2.60;;
78610;SDS011;67932;50.474;4.436;2023-03-13T08:52:47;7.07;;;3.72;;
78610;SDS011;67932;50.474;4.436;2023-03-13T08:55:13;6.18;;;2.83;;
78610;SDS011;67932;50.474;4.436;2023-03-13T08:57:39;6.68;;;2.97;;
78610;SDS011;67932;50.474;4.436;2023-03-13T09:00:05;6.13;;;2.58;;
78610;SDS011;67932;50.474;4.436;2023-03-13T09:02:32;5.72;;;2.72;;
78610;SDS011;67932;50.474;4.436;2023-03-13T09:04:59;3.95;;;2.53;;
78610;SDS011;67932;50.474;4.436;2023-03-13T09:07:25;4.47;;;1.88;;
78610;SDS011;67932;50.474;4.436;2023-03-13T09:09:53;5.20;;;2.38;;
78610;SDS011;67932;50.474;4.436;2023-03-13T09:12:19;5.68;;;2.75;;
78610;SDS011;67932;50.474;4.436;2023-03-13T09:14:46;8.25;;;2.67;;
78610;SDS011;67932;50.474;4.436;2023-03-13T09:17:12;6.07;;;2.50;;
78610;SDS011;67932;50.474;4.436;2023-03-13T09:19:39;4.55;;;2.58;;
78610;SDS011;67932;50.474;4.436;2023-03-13T09:22:05;5.18;;;2.47;;
78610;SDS011;67932;50.474;4.436;2023-03-13T09:24:31;3.05;;;1.90;;
78610;SDS011;67932;50.474;4.436;2023-03-13T09:26:57;2.97;;;2.30;;
78610;SDS011;67932;50.474;4.436;2023-03-13T09:29:23;6.10;;;2.03;;
78610;SDS011;67932;50.474;4.436;2023-03-13T09:31:49;5.03;;;2.38;;
78610;SDS011;67932;50.474;4.436;2023-03-13T09:34:15;3.67;;;1.75;;
78610;SDS011;67932;50.474;4.436;2023-03-13T09:36:41;6.05;;;2.00;;
78610;SDS011;67932;50.474;4.436;2023-03-13T09:39:07;4.45;;;2.00;;
78610;SDS011;67932;50.474;4.436;2023-03-13T09:49:25;2.35;;;1.50;;
78610;SDS011;67932;50.474;4.436;2023-03-13T09:51:55;3.40;;;1.42;;
78610;SDS011;67932;50.474;4.436;2023-03-13T09:54:25;2.95;;;1.60;;
78610;SDS011;67932;50.474;4.436;2023-03-13T09:56:56;3.40;;;1.65;;
78610;SDS011;67932;50.474;4.436;2023-03-13T09:59:48;1.98;;;1.50;;
78610;SDS011;67932;50.474;4.436;2023-03-13T10:02:18;3.42;;;1.77;;
78610;SDS011;67932;50.474;4.436;2023-03-13T10:04:47;3.80;;;1.50;;
78610;SDS011;67932;50.474;4.436;2023-03-13T10:07:14;3.42;;;1.33;;
78610;SDS011;67932;50.474;4.436;2023-03-13T10:09:41;2.58;;;1.27;;
78610;SDS011;67932;50.474;4.436;2023-03-13T10:14:37;2.83;;;1.50;;
78610;SDS011;67932;50.474;4.436;2023-03-13T10:19:57;3.35;;;1.13;;
78610;SDS011;67932;50.474;4.436;2023-03-13T10:22:25;1.35;;;1.10;;
78610;SDS011;67932;50.474;4.436;2023-03-13T10:27:20;4.45;;;1.50;;
78610;SDS011;67932;50.474;4.436;2023-03-13T10:29:46;4.93;;;1.52;;
78610;SDS011;67932;50.474;4.436;2023-03-13T10:32:13;1.73;;;1.23;;
78610;SDS011;67932;50.474;4.436;2023-03-13T10:37:15;1.80;;;0.90;;
78610;SDS011;67932;50.474;4.436;2023-03-13T10:39:41;1.25;;;0.98;;
78610;SDS011;67932;50.474;4.436;2023-03-13T10:42:08;1.33;;;1.02;;
78610;SDS011;67932;50.474;4.436;2023-03-13T10:44:35;1.88;;;0.90;;
78610;SDS011;67932;50.474;4.436;2023-03-13T10:47:01;5.28;;;1.30;;
78610;SDS011;67932;50.474;4.436;2023-03-13T10:49:29;1.60;;;1.00;;
78610;SDS011;67932;50.474;4.436;2023-03-13T10:51:59;3.13;;;1.40;;
78610;SDS011;67932;50.474;4.436;2023-03-13T10:54:29;1.58;;;1.00;;
78610;SDS011;67932;50.474;4.436;2023-03-13T10:59:44;1.40;;;1.08;;
78610;SDS011;67932;50.474;4.436;2023-03-13T11:04:52;1.88;;;1.13;;
78610;SDS011;67932;50.474;4.436;2023-03-13T11:07:20;1.88;;;1.20;;
78610;SDS011;67932;50.474;4.436;2023-03-13T11:09:56;1.25;;;0.93;;
78610;SDS011;67932;50.474;4.436;2023-03-13T11:12:23;1.92;;;1.23;;
78610;SDS011;67932;50.474;4.436;2023-03-13T11:14:57;1.50;;;1.20;;
78610;SDS011;67932;50.474;4.436;2023-03-13T11:17:37;2.63;;;1.08;;
78610;SDS011;67932;50.474;4.436;2023-03-13T11:28:03;13.48;;;7.25;;
78610;SDS011;67932;50.474;4.436;2023-03-13T11:33:51;0.70;;;0.60;;
78610;SDS011;67932;50.474;4.436;2023-03-13T11:38:23;4.97;;;2.28;;
78610;SDS011;67932;50.474;4.436;2023-03-13T11:49:02;4.75;;;1.30;;
78610;SDS011;67932;50.474;4.436;2023-03-13T12:05:58;2.92;;;1.60;;
78610;SDS011;67932;50.474;4.436;2023-03-13T12:08:33;2.55;;;1.63;;
78610;SDS011;67932;50.474;4.436;2023-03-13T12:14:31;6.43;;;2.10;;
78610;SDS011;67932;50.474;4.436;2023-03-13T12:19:11;2.30;;;1.55;;
78610;SDS011;67932;50.474;4.436;2023-03-13T12:21:44;1.80;;;1.23;;
78610;SDS011;67932;50.474;4.436;2023-03-13T12:26:40;3.75;;;1.20;;
78610;SDS011;67932;50.474;4.436;2023-03-13T12:29:14;3.05;;;1.23;;
78610;SDS011;67932;50.474;4.436;2023-03-13T12:36:57;2.47;;;1.17;;
78610;SDS011;67932;50.474;4.436;2023-03-13T12:39:33;3.28;;;1.45;;
78610;SDS011;67932;50.474;4.436;2023-03-13T12:42:16;1.88;;;0.82;;
78610;SDS011;67932;50.474;4.436;2023-03-13T12:44:44;5.25;;;1.27;;
78610;SDS011;67932;50.474;4.436;2023-03-13T12:47:17;3.10;;;1.45;;
78610;SDS011;67932;50.474;4.436;2023-03-13T12:59:48;3.45;;;1.20;;
78610;SDS011;67932;50.474;4.436;2023-03-13T13:02:17;3.33;;;1.60;;
78610;SDS011;67932;50.474;4.436;2023-03-13T13:04:45;3.22;;;1.63;;
78610;SDS011;67932;50.474;4.436;2023-03-13T13:12:29;3.63;;;1.42;;
78610;SDS011;67932;50.474;4.436;2023-03-13T13:17:26;2.60;;;1.42;;
78610;SDS011;67932;50.474;4.436;2023-03-13T13:19:54;2.47;;;0.95;;
78610;SDS011;67932;50.474;4.436;2023-03-13T13:32:48;5.07;;;1.60;;
78610;SDS011;67932;50.474;4.436;2023-03-13T13:35:18;3.55;;;1.30;;
78610;SDS011;67932;50.474;4.436;2023-03-13T13:37:45;3.38;;;1.90;;
78610;SDS011;67932;50.474;4.436;2023-03-13T13:42:58;2.42;;;1.80;;
78610;SDS011;67932;50.474;4.436;2023-03-13T13:48:12;3.53;;;1.90;;
78610;SDS011;67932;50.474;4.436;2023-03-13T13:50:37;3.53;;;1.88;;
78610;SDS011;67932;50.474;4.436;2023-03-13T13:53:23;4.78;;;1.23;;
78610;SDS011;67932;50.474;4.436;2023-03-13T13:55:53;1.67;;;1.15;;
78610;SDS011;67932;50.474;4.436;2023-03-13T13:58:23;3.17;;;1.27;;
78610;SDS011;67932;50.474;4.436;2023-03-13T14:01:02;5.40;;;3.40;;
78610;SDS011;67932;50.474;4.436;2023-03-13T14:03:36;3.97;;;1.35;;
78610;SDS011;67932;50.474;4.436;2023-03-13T14:08:44;6.07;;;3.03;;
78610;SDS011;67932;50.474;4.436;2023-03-13T14:11:28;3.10;;;1.80;;
78610;SDS011;67932;50.474;4.436;2023-03-13T14:16:35;2.95;;;1.85;;
78610;SDS011;67932;50.474;4.436;2023-03-13T14:19:02;4.03;;;2.13;;
78610;SDS011;67932;50.474;4.436;2023-03-13T14:27:41;3.13;;;1.25;;
78610;SDS011;67932;50.474;4.436;2023-03-13T14:30:08;3.58;;;1.20;;
78610;SDS011;67932;50.474;4.436;2023-03-13T14:32:34;2.42;;;0.90;;
78610;SDS011;67932;50.474;4.436;2023-03-13T14:35:01;4.15;;;1.45;;
78610;SDS011;67932;50.474;4.436;2023-03-13T14:37:34;5.18;;;1.35;;
78610;SDS011;67932;50.474;4.436;2023-03-13T14:40:07;4.07;;;1.13;;
78610;SDS011;67932;50.474;4.436;2023-03-13T14:42:56;2.75;;;1.23;;
78610;SDS011;67932;50.474;4.436;2023-03-13T14:45:24;4.25;;;1.02;;
78610;SDS011;67932;50.474;4.436;2023-03-13T14:47:54;3.05;;;1.27;;
78610;SDS011;67932;50.474;4.436;2023-03-13T14:50:22;3.13;;;1.23;;
78610;SDS011;67932;50.474;4.436;2023-03-13T14:52:50;4.90;;;1.20;;
78610;SDS011;67932;50.474;4.436;2023-03-13T14:58:00;4.93;;;2.15;;
78610;SDS011;67932;50.474;4.436;2023-03-13T15:00:36;15.85;;;7.03;;
78610;SDS011;67932;50.474;4.436;2023-03-13T15:08:12;15.00;;;5.78;;
78610;SDS011;67932;50.474;4.436;2023-03-13T15:10:39;7.82;;;3.97;;
78610;SDS011;67932;50.474;4.436;2023-03-13T15:15:42;4.38;;;1.35;;
78610;SDS011;67932;50.474;4.436;2023-03-13T15:21:17;4.25;;;1.33;;
78610;SDS011;67932;50.474;4.436;2023-03-13T15:23:50;7.57;;;2.53;;
78610;SDS011;67932;50.474;4.436;2023-03-13T15:26:17;7.88;;;3.78;;
78610;SDS011;67932;50.474;4.436;2023-03-13T15:28:44;4.18;;;1.02;;
78610;SDS011;67932;50.474;4.436;2023-03-13T15:31:11;4.30;;;0.98;;
78610;SDS011;67932;50.474;4.436;2023-03-13T15:33:38;4.75;;;2.50;;
78610;SDS011;67932;50.474;4.436;2023-03-13T15:36:05;2.97;;;1.20;;
78610;SDS011;67932;50.474;4.436;2023-03-13T15:38:31;7.03;;;2.17;;
78610;SDS011;67932;50.474;4.436;2023-03-13T15:40:57;3.65;;;1.33;;
78610;SDS011;67932;50.474;4.436;2023-03-13T15:43:23;3.30;;;1.10;;
78610;SDS011;67932;50.474;4.436;2023-03-13T15:45:50;5.78;;;2.53;;
78610;SDS011;67932;50.474;4.436;2023-03-13T15:48:17;4.47;;;1.80;;
78610;SDS011;67932;50.474;4.436;2023-03-13T15:50:54;4.85;;;1.35;;
78610;SDS011;67932;50.474;4.436;2023-03-13T15:53:26;6.15;;;1.90;;
78610;SDS011;67932;50.474;4.436;2023-03-13T15:55:53;6.53;;;1.73;;
78610;SDS011;67932;50.474;4.436;2023-03-13T15:58:21;5.95;;;1.77;;
78610;SDS011;67932;50.474;4.436;2023-03-13T16:00:48;7.88;;;2.10;;
78610;SDS011;67932;50.474;4.436;2023-03-13T16:03:16;6.50;;;1.98;;
78610;SDS011;67932;50.474;4.436;2023-03-13T16:05:43;4.00;;;1.10;;
78610;SDS011;67932;50.474;4.436;2023-03-13T16:08:20;5.45;;;1.33;;
78610;SDS011;67932;50.474;4.436;2023-03-13T16:10:47;4.88;;;1.88;;
78610;SDS011;67932;50.474;4.436;2023-03-13T16:13:14;6.35;;;2.53;;
78610;SDS011;67932;50.474;4.436;2023-03-13T16:15:41;8.13;;;1.95;;
78610;SDS011;67932;50.474;4.436;2023-03-13T16:18:18;4.38;;;1.65;;
78610;SDS011;67932;50.474;4.436;2023-03-13T16:20:46;5.47;;;1.65;;
78610;SDS011;67932;50.474;4.436;2023-03-13T16:23:15;3.50;;;1.25;;
78610;SDS011;67932;50.474;4.436;2023-03-13T16:25:41;8.20;;;2.05;;
78610;SDS011;67932;50.474;4.436;2023-03-13T16:28:10;4.35;;;1.80;;
78610;SDS011;67932;50.474;4.436;2023-03-13T16:30:37;4.70;;;1.45;;
78610;SDS011;67932;50.474;4.436;2023-03-13T16:33:11;6.68;;;1.90;;
78610;SDS011;67932;50.474;4.436;2023-03-13T16:35:37;7.03;;;3.33;;
78610;SDS011;67932;50.474;4.436;2023-03-13T16:38:04;6.57;;;2.15;;
78610;SDS011;67932;50.474;4.436;2023-03-13T16:40:32;5.70;;;2.33;;
78610;SDS011;67932;50.474;4.436;2023-03-13T16:42:59;11.75;;;3.10;;
78610;SDS011;67932;50.474;4.436;2023-03-13T16:45:25;8.27;;;2.35;;
78610;SDS011;67932;50.474;4.436;2023-03-13T16:47:52;9.25;;;4.43;;
78610;SDS011;67932;50.474;4.436;2023-03-13T16:52:44;4.20;;;1.73;;
78610;SDS011;67932;50.474;4.436;2023-03-13T16:55:10;11.02;;;2.80;;
78610;SDS011;67932;50.474;4.436;2023-03-13T16:57:36;8.73;;;4.05;;
78610;SDS011;67932;50.474;4.436;2023-03-13T17:00:02;6.10;;;2.22;;
78610;SDS011;67932;50.474;4.436;2023-03-13T17:02:31;8.52;;;2.53;;
78610;SDS011;67932;50.474;4.436;2023-03-13T17:05:01;11.75;;;4.70;;
78610;SDS011;67932;50.474;4.436;2023-03-13T17:07:27;6.60;;;3.08;;
78610;SDS011;67932;50.474;4.436;2023-03-13T17:09:53;8.05;;;3.40;;
78610;SDS011;67932;50.474;4.436;2023-03-13T17:12:20;6.90;;;2.10;;
78610;SDS011;67932;50.474;4.436;2023-03-13T17:14:46;4.82;;;1.80;;
78610;SDS011;67932;50.474;4.436;2023-03-13T17:17:13;4.35;;;1.60;;